createdAt,value
2019-05-23T00:03:58.887Z,13.80
2019-05-23T00:09:05.771Z,13.70
2019-05-23T00:14:27.105Z,13.60
2019-05-23T00:19:32.668Z,13.60
2019-05-23T00:24:39.346Z,13.50
2019-05-23T00:29:47.751Z,13.50
2019-05-23T00:34:56.010Z,13.40
2019-05-23T00:40:03.012Z,13.40
2019-05-23T00:45:12.438Z,13.30
2019-05-23T00:50:20.826Z,13.20
2019-05-23T00:55:30.496Z,13.20
2019-05-23T01:00:35.219Z,13.10
2019-05-23T01:05:43.153Z,13.10
2019-05-23T01:10:49.379Z,13.00
2019-05-23T01:15:55.614Z,13.00
2019-05-23T01:21:10.834Z,12.90
2019-05-23T01:26:20.773Z,12.80
2019-05-23T01:31:35.463Z,12.80
2019-05-23T01:36:40.432Z,12.80
2019-05-23T01:41:52.399Z,12.70
2019-05-23T01:46:59.333Z,12.70
2019-05-23T01:52:06.850Z,12.60
2019-05-23T01:57:13.231Z,12.60
2019-05-23T02:02:19.379Z,12.60
2019-05-23T02:07:27.944Z,12.60
2019-05-23T02:12:33.676Z,12.50
2019-05-23T02:17:43.511Z,12.50
2019-05-23T02:22:50.538Z,12.40
2019-05-23T02:27:57.473Z,12.40
2019-05-23T02:33:02.974Z,12.30
2019-05-23T02:38:12.286Z,12.30
2019-05-23T02:43:21.538Z,12.30
2019-05-23T02:48:30.931Z,12.30
2019-05-23T02:53:37.552Z,12.20
2019-05-23T02:59:07.777Z,12.20
2019-05-23T03:04:17.544Z,12.20
2019-05-23T03:09:27.876Z,12.10
2019-05-23T03:14:34.632Z,12.10
2019-05-23T03:19:58.055Z,12.10
2019-05-23T03:25:09.593Z,12.00
2019-05-23T03:30:17.117Z,11.90
2019-05-23T03:35:26.891Z,11.90
2019-05-23T03:45:39.621Z,11.70
2019-05-23T03:50:49.145Z,11.80
2019-05-23T03:55:57.780Z,11.70
2019-05-23T04:01:07.492Z,11.70
2019-05-23T04:06:21.511Z,11.60
2019-05-23T04:11:29.145Z,11.60
2019-05-23T04:16:39.163Z,11.60
2019-05-23T04:21:44.834Z,11.60
2019-05-23T04:26:52.421Z,11.60
2019-05-23T04:32:07.758Z,11.60
2019-05-23T04:37:15.422Z,11.60
2019-05-23T04:42:21.548Z,11.60
2019-05-23T04:47:35.985Z,11.60
2019-05-23T04:52:43.678Z,11.70
2019-05-23T04:57:49.536Z,11.70
2019-05-23T05:02:57.714Z,11.80
2019-05-23T05:08:04.148Z,11.90
2019-05-23T05:13:09.442Z,12.00
2019-05-23T05:18:17.626Z,12.10
2019-05-23T05:23:25.487Z,12.20
2019-05-23T05:28:29.912Z,12.20
2019-05-23T05:33:37.199Z,12.40
2019-05-23T05:38:41.496Z,12.40
2019-05-23T05:43:46.365Z,12.60
2019-05-23T05:48:51.433Z,12.70
2019-05-23T05:53:55.849Z,12.90
2019-05-23T05:59:00.513Z,13.10
2019-05-23T06:04:07.301Z,13.30
2019-05-23T06:09:13.435Z,13.40
2019-05-23T06:14:18.279Z,13.60
2019-05-23T06:19:24.597Z,13.80
2019-05-23T06:24:44.980Z,14.00
2019-05-23T06:29:35.579Z,14.20
2019-05-23T06:34:41.007Z,14.40
2019-05-23T06:39:45.564Z,14.70
2019-05-23T06:44:49.977Z,14.90
2019-05-23T06:49:54.643Z,15.20
2019-05-23T06:54:59.829Z,15.40
2019-05-23T07:00:07.275Z,15.70
2019-05-23T07:05:12.903Z,15.90
2019-05-23T07:10:17.590Z,16.00
2019-05-23T07:15:24.683Z,16.20
2019-05-23T07:20:29.211Z,16.40
2019-05-23T07:25:34.402Z,16.60
2019-05-23T07:30:38.807Z,16.90
2019-05-23T07:35:43.165Z,17.20
2019-05-23T07:40:49.366Z,17.50
2019-05-23T07:45:57.932Z,17.70
2019-05-23T07:51:10.405Z,18.00
2019-05-23T07:56:19.640Z,18.30
2019-05-23T08:01:29.023Z,18.60
2019-05-23T08:06:33.758Z,18.90
2019-05-23T08:11:38.331Z,19.10
2019-05-23T08:16:43.019Z,19.30
2019-05-23T08:21:48.911Z,19.60
2019-05-23T08:26:55.797Z,19.90
2019-05-23T08:32:00.366Z,19.90
2019-05-23T08:37:04.879Z,20.00
2019-05-23T08:42:10.801Z,20.00
2019-05-23T08:47:30.038Z,20.00
2019-05-23T08:52:34.683Z,20.20
2019-05-23T08:57:40.038Z,20.50
2019-05-23T09:02:47.234Z,20.70
2019-05-23T09:07:52.370Z,20.90
2019-05-23T09:12:57.328Z,21.10
2019-05-23T09:18:02.092Z,21.20
2019-05-23T09:23:06.787Z,21.20
2019-05-23T09:28:12.905Z,21.30
2019-05-23T09:33:17.579Z,21.30
2019-05-23T09:38:22.285Z,21.30
2019-05-23T09:43:27.624Z,21.40
2019-05-23T09:48:32.130Z,21.60
2019-05-23T09:53:36.622Z,21.90
2019-05-23T09:58:41.680Z,22.10
2019-05-23T10:04:06.891Z,22.10
2019-05-23T10:09:25.272Z,22.00
2019-05-23T10:14:40.061Z,22.00
2019-05-23T10:19:44.456Z,22.10
2019-05-23T10:24:51.850Z,22.30
2019-05-23T10:29:56.232Z,22.60
2019-05-23T10:35:00.879Z,22.70
2019-05-23T10:40:08.826Z,23.00
2019-05-23T10:45:15.769Z,23.10
2019-05-23T10:50:20.163Z,23.20
2019-05-23T10:55:24.646Z,23.40
2019-05-23T11:00:30.359Z,23.80
2019-05-23T11:05:35.074Z,23.80
2019-05-23T11:10:40.810Z,24.10
2019-05-23T11:15:45.571Z,24.40
2019-05-23T11:20:50.822Z,24.60
2019-05-23T11:25:55.785Z,24.70
2019-05-23T11:31:01.720Z,24.90
2019-05-23T11:36:06.786Z,25.20
2019-05-23T11:41:11.846Z,25.50
2019-05-23T11:46:20.886Z,25.60
2019-05-23T11:51:27.837Z,25.80
2019-05-23T11:56:33.223Z,26.00
2019-05-23T12:01:49.044Z,26.30
2019-05-23T12:06:58.289Z,26.40
2019-05-23T12:12:03.433Z,26.60
2019-05-23T12:17:08.163Z,26.80
2019-05-23T12:22:12.639Z,26.70
2019-05-23T12:27:17.152Z,26.50
2019-05-23T12:32:21.771Z,26.50
2019-05-23T12:37:26.319Z,26.70
2019-05-23T12:42:30.782Z,26.80
2019-05-23T12:47:36.919Z,27.20
2019-05-23T12:52:41.514Z,27.70
2019-05-23T12:57:45.983Z,27.90
2019-05-23T13:02:50.480Z,27.70
2019-05-23T13:07:55.111Z,27.70
2019-05-23T13:13:00.339Z,28.00
2019-05-23T13:18:05.351Z,27.90
2019-05-23T13:23:19.578Z,27.80
2019-05-23T13:28:16.099Z,27.80
2019-05-23T13:33:20.614Z,28.00
2019-05-23T13:38:25.013Z,28.10
2019-05-23T13:43:30.756Z,27.90
2019-05-23T13:48:35.236Z,27.90
2019-05-23T13:53:40.057Z,27.90
2019-05-23T13:58:46.201Z,27.80
2019-05-23T14:03:50.896Z,27.80
2019-05-23T14:08:55.447Z,27.70
2019-05-23T14:14:02.107Z,27.40
2019-05-23T14:19:06.687Z,27.10
2019-05-23T14:24:11.344Z,26.90
2019-05-23T14:29:15.887Z,26.80
2019-05-23T14:34:20.741Z,26.60
2019-05-23T14:39:27.032Z,26.30
2019-05-23T14:44:31.861Z,26.30
2019-05-23T14:49:41.637Z,26.30
2019-05-23T14:54:47.302Z,26.20
2019-05-23T14:59:51.748Z,26.00
2019-05-23T15:04:56.214Z,25.50
2019-05-23T15:10:00.754Z,25.40
2019-05-23T15:15:07.925Z,25.20
2019-05-23T15:20:12.523Z,24.90
2019-05-23T15:25:16.991Z,25.00
2019-05-23T15:30:21.588Z,25.00
2019-05-23T15:35:28.087Z,25.10
2019-05-23T15:40:33.017Z,25.50
2019-05-23T15:45:37.584Z,25.40
2019-05-23T15:50:46.670Z,25.50
2019-05-23T15:55:52.713Z,25.80
2019-05-23T16:01:04.323Z,25.90
2019-05-23T16:06:10.617Z,25.60
2019-05-23T16:11:17.545Z,25.60
2019-05-23T16:16:22.278Z,25.50
2019-05-23T16:21:27.525Z,25.50
2019-05-23T16:26:32.040Z,25.30
2019-05-23T16:31:36.405Z,24.80
2019-05-23T16:36:41.586Z,24.40
2019-05-23T16:41:45.964Z,24.30
2019-05-23T16:46:50.464Z,24.40
2019-05-23T16:51:54.908Z,24.20
2019-05-23T16:57:06.962Z,24.10
2019-05-23T17:02:16.272Z,23.90
2019-05-23T17:07:37.395Z,23.60
2019-05-23T17:12:49.323Z,23.20
2019-05-23T17:18:04.124Z,22.80
2019-05-23T17:23:19.134Z,22.60
2019-05-23T17:28:34.704Z,22.60
2019-05-23T17:33:39.415Z,22.70
2019-05-23T17:38:44.113Z,22.70
2019-05-23T17:43:51.327Z,22.60
2019-05-23T17:48:55.839Z,22.40
2019-05-23T17:54:00.372Z,22.30
2019-05-23T17:59:04.925Z,22.10
2019-05-23T18:04:12.868Z,22.00
2019-05-23T18:09:17.275Z,22.00
2019-05-23T18:14:23.007Z,22.00
2019-05-23T18:19:28.182Z,22.00
2019-05-23T18:24:32.939Z,21.90
2019-05-23T18:29:37.592Z,21.90
2019-05-23T18:34:42.353Z,21.90
2019-05-23T18:39:46.789Z,21.70
2019-05-23T18:44:51.559Z,21.70
2019-05-23T18:49:56.816Z,21.70
2019-05-23T18:55:01.361Z,21.50
2019-05-23T19:00:07.733Z,21.30
2019-05-23T19:05:13.640Z,21.20
2019-05-23T19:10:19.305Z,21.20
2019-05-23T19:15:24.087Z,21.20
2019-05-23T19:20:28.599Z,21.20
2019-05-23T19:25:35.687Z,21.20
2019-05-23T19:30:40.158Z,21.20
2019-05-23T19:35:47.364Z,21.10
2019-05-23T19:40:52.646Z,21.10
2019-05-23T19:45:57.407Z,20.90
2019-05-23T19:51:02.499Z,20.80
2019-05-23T19:56:08.966Z,20.60
2019-05-23T20:01:13.603Z,20.40
2019-05-23T20:06:22.808Z,20.30
2019-05-23T20:11:35.101Z,20.20
2019-05-23T20:16:51.176Z,20.20
2019-05-23T20:22:07.593Z,20.10
2019-05-23T20:27:20.738Z,20.00
2019-05-23T20:32:30.729Z,19.80
2019-05-23T20:37:36.637Z,19.60
2019-05-23T20:42:46.090Z,19.50
2019-05-23T20:47:51.765Z,19.40
2019-05-23T20:52:59.452Z,19.40
2019-05-23T20:58:05.398Z,19.30
2019-05-23T21:03:12.786Z,19.30
2019-05-23T21:13:20.988Z,19.20
2019-05-23T21:18:25.667Z,19.10
2019-05-23T21:23:33.141Z,18.90
2019-05-23T21:28:39.773Z,18.80
2019-05-23T21:33:50.356Z,18.70
2019-05-23T21:38:59.460Z,18.60
2019-05-23T21:44:04.014Z,18.60
2019-05-23T21:49:14.021Z,18.60
2019-05-23T21:54:18.813Z,18.60
2019-05-23T21:59:25.482Z,18.60
2019-05-23T22:04:33.736Z,18.60
2019-05-23T22:09:44.574Z,18.60
2019-05-23T22:14:50.714Z,18.50
2019-05-23T22:19:57.043Z,18.50
2019-05-23T22:25:04.848Z,18.50
2019-05-23T22:30:12.061Z,18.40
2019-05-23T22:35:20.680Z,18.30
2019-05-23T22:40:26.135Z,18.20
2019-05-23T22:45:31.584Z,18.20
2019-05-23T22:50:41.504Z,18.10
2019-05-23T22:55:45.815Z,18.10
2019-05-23T23:00:51.629Z,18.10
2019-05-23T23:06:00.048Z,18.00
2019-05-23T23:11:05.256Z,17.90
2019-05-23T23:16:11.588Z,17.80
2019-05-23T23:26:26.445Z,17.80
2019-05-23T23:31:34.609Z,17.70
2019-05-23T23:36:42.452Z,17.60
2019-05-23T23:41:52.184Z,17.50
2019-05-23T23:47:17.036Z,17.50
2019-05-23T23:52:43.764Z,17.50
2019-05-23T23:58:01.007Z,17.40
